createdAt,value
2018-04-16T00:02:24.638Z,11.94
2018-04-16T00:04:53.051Z,11.91
2018-04-16T00:07:22.221Z,12.03
2018-04-16T00:09:50.727Z,11.94
2018-04-16T00:12:19.112Z,11.85
2018-04-16T00:14:47.498Z,11.80
2018-04-16T00:17:16.642Z,11.79
2018-04-16T00:19:45.030Z,11.78
2018-04-16T00:22:13.418Z,11.84
2018-04-16T00:24:41.918Z,11.81
2018-04-16T00:27:10.322Z,11.71
2018-04-16T00:29:38.706Z,11.69
2018-04-16T00:32:12.528Z,11.60
2018-04-16T00:34:47.154Z,11.50
2018-04-16T00:37:22.622Z,11.45
2018-04-16T00:39:56.450Z,11.40
2018-04-16T00:42:30.410Z,11.40
2018-04-16T00:45:05.067Z,11.37
2018-04-16T00:47:38.930Z,11.36
2018-04-16T00:50:12.732Z,11.30
2018-04-16T00:52:46.569Z,11.23
2018-04-16T00:55:21.129Z,11.10
2018-04-16T00:57:54.860Z,11.04
2018-04-16T01:00:28.700Z,10.90
2018-04-16T01:03:03.365Z,10.81
2018-04-16T01:05:37.362Z,10.74
2018-04-16T01:08:11.185Z,10.62
2018-04-16T01:10:45.102Z,10.59
2018-04-16T01:13:18.790Z,10.52
2018-04-16T01:15:52.585Z,10.61
2018-04-16T01:18:26.502Z,10.55
2018-04-16T01:21:00.467Z,10.52
2018-04-16T01:23:35.118Z,10.49
2018-04-16T01:26:09.073Z,10.55
2018-04-16T01:28:42.809Z,10.49
2018-04-16T01:31:17.429Z,10.47
2018-04-16T01:33:51.322Z,10.39
2018-04-16T01:36:25.050Z,10.25
2018-04-16T01:38:59.608Z,10.19
2018-04-16T01:41:33.323Z,10.13
2018-04-16T01:44:07.233Z,10.03
2018-04-16T01:46:40.932Z,9.98
2018-04-16T01:49:14.711Z,9.96
2018-04-16T01:51:49.205Z,9.88
2018-04-16T01:54:23.102Z,9.87
2018-04-16T01:56:57.018Z,9.86
2018-04-16T01:59:30.783Z,9.82
2018-04-16T02:02:04.503Z,9.75
2018-04-16T02:07:41.029Z,10.01
2018-04-16T02:10:15.634Z,9.86
2018-04-16T02:12:49.536Z,9.77
2018-04-16T02:18:28.929Z,9.87
2018-04-16T02:21:02.650Z,9.97
2018-04-16T02:23:36.351Z,10.05
2018-04-16T02:26:10.180Z,10.01
2018-04-16T02:28:43.890Z,9.92
2018-04-16T02:31:17.691Z,9.85
2018-04-16T02:33:51.589Z,9.76
2018-04-16T02:36:25.401Z,9.69
2018-04-16T02:38:59.290Z,9.73
2018-04-16T02:44:34.915Z,9.77
2018-04-16T02:47:08.841Z,9.78
2018-04-16T02:49:42.615Z,9.70
2018-04-16T02:52:17.267Z,9.59
2018-04-16T02:54:50.993Z,9.64
2018-04-16T02:57:24.886Z,9.73
2018-04-16T02:59:58.797Z,9.66
2018-04-16T03:02:32.513Z,9.59
2018-04-16T03:05:06.232Z,9.52
2018-04-16T03:07:40.019Z,9.40
2018-04-16T03:10:13.838Z,9.35
2018-04-16T03:12:48.374Z,9.44
2018-04-16T03:15:22.192Z,9.49
2018-04-16T03:17:56.057Z,9.37
2018-04-16T03:20:29.829Z,9.29
2018-04-16T03:23:04.340Z,9.23
2018-04-16T03:25:38.289Z,9.29
2018-04-16T03:28:12.238Z,9.39
2018-04-16T03:30:46.038Z,9.46
2018-04-16T03:36:20.536Z,9.77
2018-04-16T03:38:54.221Z,9.84
2018-04-16T03:41:27.971Z,9.84
2018-04-16T03:44:01.676Z,9.85
2018-04-16T03:46:35.365Z,9.85
2018-04-16T03:49:09.269Z,10.07
2018-04-16T03:54:37.186Z,10.27
2018-04-16T03:57:05.567Z,10.13
2018-04-16T03:59:33.946Z,10.03
2018-04-16T04:02:02.356Z,9.92
2018-04-16T04:04:30.744Z,9.85
2018-04-16T04:06:59.158Z,9.86
2018-04-16T04:09:27.546Z,9.91
2018-04-16T04:11:55.943Z,9.98
2018-04-16T04:14:24.357Z,10.04
2018-04-16T04:16:52.745Z,10.08
2018-04-16T04:19:21.886Z,10.13
2018-04-16T04:21:50.276Z,10.18
2018-04-16T04:24:37.206Z,10.17
2018-04-16T04:30:30.853Z,10.25
2018-04-16T04:33:00.073Z,10.32
2018-04-16T04:35:28.463Z,10.40
2018-04-16T04:37:56.862Z,10.44
2018-04-16T04:40:25.253Z,10.51
2018-04-16T04:42:54.397Z,10.61
2018-04-16T04:45:22.786Z,10.64
2018-04-16T04:47:51.171Z,10.68
2018-04-16T04:50:19.565Z,10.72
2018-04-16T04:52:47.958Z,10.70
2018-04-16T04:55:16.357Z,10.67
2018-04-16T04:57:44.829Z,10.58
2018-04-16T05:00:13.224Z,10.53
2018-04-16T05:02:41.623Z,10.49
2018-04-16T05:05:10.045Z,10.51
2018-04-16T05:07:38.493Z,10.66
2018-04-16T05:10:08.493Z,10.76
2018-04-16T05:12:36.871Z,10.79
2018-04-16T05:15:05.266Z,10.84
2018-04-16T05:17:33.633Z,10.89
2018-04-16T05:20:02.041Z,11.12
2018-04-16T05:22:31.212Z,11.33
2018-04-16T05:24:59.618Z,11.43
2018-04-16T05:27:27.986Z,11.71
2018-04-16T05:29:56.349Z,11.96
2018-04-16T05:32:24.755Z,12.09
2018-04-16T05:34:53.141Z,12.52
2018-04-16T05:37:21.534Z,12.86
2018-04-16T05:39:50.675Z,13.62
2018-04-16T05:42:19.066Z,14.07
2018-04-16T05:44:47.526Z,14.27
2018-04-16T05:47:15.929Z,14.34
2018-04-16T05:49:44.331Z,14.63
2018-04-16T05:52:12.717Z,14.73
2018-04-16T05:54:41.115Z,14.63
2018-04-16T05:57:09.518Z,14.96
2018-04-16T05:59:37.993Z,14.81
2018-04-16T06:02:06.394Z,14.65
2018-04-16T06:04:35.542Z,14.79
2018-04-16T06:07:03.909Z,14.88
2018-04-16T06:09:32.294Z,14.97
2018-04-16T06:12:00.678Z,15.15
2018-04-16T06:14:29.085Z,14.75
2018-04-16T06:16:57.466Z,15.15
2018-04-16T06:19:25.894Z,15.67
2018-04-16T06:21:55.071Z,16.70
2018-04-16T06:24:23.437Z,16.68
2018-04-16T06:26:51.826Z,16.99
2018-04-16T06:29:20.223Z,17.55
2018-04-16T06:31:48.605Z,19.10
2018-04-16T06:34:16.978Z,18.86
2018-04-16T06:36:45.361Z,18.76
2018-04-16T06:39:13.813Z,18.71
2018-04-16T06:41:42.183Z,17.85
2018-04-16T06:44:10.557Z,17.01
2018-04-16T06:46:39.701Z,17.53
2018-04-16T06:49:08.073Z,17.46
2018-04-16T06:51:36.455Z,17.08
2018-04-16T06:54:04.833Z,17.31
2018-04-16T06:56:33.294Z,17.01
2018-04-16T06:59:02.455Z,16.57
2018-04-16T07:01:30.928Z,17.06
2018-04-16T07:03:59.335Z,16.51
2018-04-16T07:06:27.723Z,16.83
2018-04-16T07:08:56.105Z,17.03
2018-04-16T07:11:24.476Z,17.44
2018-04-16T07:13:52.879Z,17.15
2018-04-16T07:16:22.048Z,16.43
2018-04-16T07:18:50.451Z,16.77
2018-04-16T07:21:18.812Z,17.35
2018-04-16T07:23:47.198Z,18.67
2018-04-16T07:26:15.568Z,18.73
2018-04-16T07:28:43.968Z,19.56
2018-04-16T07:31:12.341Z,18.92
2018-04-16T07:33:40.807Z,19.04
2018-04-16T07:36:09.148Z,18.48
2018-04-16T07:38:38.292Z,18.42
2018-04-16T07:41:06.698Z,17.98
2018-04-16T07:43:35.085Z,16.84
2018-04-16T07:46:03.479Z,16.47
2018-04-16T07:48:31.890Z,16.40
2018-04-16T07:51:00.318Z,16.39
2018-04-16T07:53:28.886Z,16.84
2018-04-16T07:55:57.328Z,17.14
2018-04-16T07:58:26.493Z,17.90
2018-04-16T08:00:54.871Z,18.20
2018-04-16T08:03:23.285Z,17.81
2018-04-16T08:05:51.685Z,18.42
2018-04-16T08:08:20.827Z,19.44
2018-04-16T08:10:49.206Z,20.72
2018-04-16T08:13:17.597Z,21.67
2018-04-16T08:15:45.973Z,21.59
2018-04-16T08:18:14.341Z,22.53
2018-04-16T08:20:42.753Z,20.97
2018-04-16T08:23:11.161Z,20.93
2018-04-16T08:25:39.549Z,20.68
2018-04-16T08:28:07.976Z,19.84
2018-04-16T08:30:36.427Z,19.28
2018-04-16T08:33:04.814Z,19.60
2018-04-16T08:35:33.195Z,20.02
2018-04-16T08:38:01.627Z,20.36
2018-04-16T08:40:30.113Z,20.28
2018-04-16T08:42:58.515Z,20.23
2018-04-16T08:45:26.941Z,20.89
2018-04-16T08:47:56.167Z,21.65
2018-04-16T08:50:24.544Z,21.85
2018-04-16T08:52:52.927Z,22.39
2018-04-16T08:55:21.290Z,23.21
2018-04-16T08:57:50.429Z,23.90
2018-04-16T09:00:18.829Z,24.20
2018-04-16T09:02:47.213Z,24.10
2018-04-16T09:05:16.491Z,23.83
2018-04-16T09:07:44.936Z,22.25
2018-04-16T09:10:13.329Z,23.46
2018-04-16T09:12:42.478Z,23.22
2018-04-16T09:15:10.855Z,24.34
2018-04-16T09:17:39.245Z,24.86
2018-04-16T09:20:08.164Z,23.69
2018-04-16T09:22:36.538Z,22.84
2018-04-16T09:25:05.034Z,22.32
2018-04-16T09:27:33.418Z,21.51
2018-04-16T09:30:01.853Z,21.16
2018-04-16T09:32:30.237Z,20.64
2018-04-16T09:34:58.666Z,20.07
2018-04-16T09:37:27.178Z,19.78
2018-04-16T09:39:56.340Z,19.94
2018-04-16T09:42:24.722Z,20.84
2018-04-16T09:44:53.098Z,21.44
2018-04-16T09:47:21.938Z,22.75
2018-04-16T09:49:51.081Z,23.39
2018-04-16T09:52:19.548Z,23.40
2018-04-16T09:54:47.940Z,22.37
2018-04-16T09:57:16.501Z,21.69
2018-04-16T09:59:45.643Z,21.22
2018-04-16T10:02:19.446Z,20.65
2018-04-16T10:04:47.911Z,20.76
2018-04-16T10:07:16.305Z,20.42
2018-04-16T10:09:44.687Z,19.95
2018-04-16T10:12:13.111Z,20.11
2018-04-16T10:14:41.557Z,19.79
2018-04-16T10:17:09.945Z,19.37
2018-04-16T10:19:38.353Z,20.49
2018-04-16T10:22:06.758Z,21.46
2018-04-16T10:24:35.160Z,21.00
2018-04-16T10:27:04.306Z,21.25
2018-04-16T10:29:32.689Z,22.76
2018-04-16T10:32:01.081Z,23.62
2018-04-16T10:34:29.506Z,23.53
2018-04-16T10:36:58.658Z,23.16
2018-04-16T10:39:27.066Z,24.39
2018-04-16T10:41:55.454Z,24.68
2018-04-16T10:44:23.835Z,24.83
2018-04-16T10:46:52.226Z,24.82
2018-04-16T10:49:20.614Z,24.61
2018-04-16T10:51:48.990Z,25.02
2018-04-16T10:54:17.497Z,24.50
2018-04-16T10:56:46.658Z,25.70
2018-04-16T10:59:15.043Z,24.44
2018-04-16T11:01:43.419Z,23.32
2018-04-16T11:04:11.801Z,23.83
2018-04-16T11:06:40.193Z,24.29
2018-04-16T11:09:08.573Z,25.23
2018-04-16T11:11:37.770Z,23.78
2018-04-16T11:14:06.145Z,23.81
2018-04-16T11:16:34.528Z,23.22
2018-04-16T11:19:03.023Z,22.36
2018-04-16T11:21:31.402Z,22.47
2018-04-16T11:23:59.794Z,22.00
2018-04-16T11:26:28.230Z,23.06
2018-04-16T11:28:56.580Z,23.59
2018-04-16T11:31:24.975Z,23.41
2018-04-16T11:33:54.203Z,24.07
2018-04-16T11:36:22.595Z,24.01
2018-04-16T11:38:50.999Z,22.66
2018-04-16T11:41:19.393Z,21.73
2018-04-16T11:43:47.777Z,21.01
2018-04-16T11:46:16.204Z,20.66
2018-04-16T11:48:45.344Z,21.14
2018-04-16T11:51:13.737Z,21.65
2018-04-16T11:53:42.156Z,21.81
2018-04-16T11:56:11.362Z,21.33
2018-04-16T11:58:40.517Z,22.55
2018-04-16T12:01:08.893Z,22.90
2018-04-16T12:03:37.308Z,22.92
2018-04-16T12:06:05.690Z,24.46
2018-04-16T12:08:34.094Z,24.77
2018-04-16T12:11:02.538Z,24.51
2018-04-16T12:13:31.017Z,22.08
2018-04-16T12:15:59.427Z,23.31
2018-04-16T12:18:27.794Z,24.31
2018-04-16T12:20:56.218Z,23.81
2018-04-16T12:23:25.366Z,23.47
2018-04-16T12:25:53.755Z,23.90
2018-04-16T12:28:22.138Z,23.78
2018-04-16T12:30:50.518Z,24.18
2018-04-16T12:33:18.929Z,23.82
2018-04-16T12:35:47.327Z,22.62
2018-04-16T12:38:15.729Z,22.35
2018-04-16T12:40:44.880Z,22.24
2018-04-16T12:43:13.301Z,21.88
2018-04-16T12:45:42.535Z,22.24
2018-04-16T12:48:10.942Z,21.92
2018-04-16T12:50:39.322Z,21.82
2018-04-16T12:53:07.819Z,21.87
2018-04-16T12:55:36.224Z,22.00
2018-04-16T12:58:04.590Z,21.59
2018-04-16T13:00:33.012Z,21.27
2018-04-16T13:03:02.146Z,21.21
2018-04-16T13:05:30.529Z,21.11
2018-04-16T13:07:58.956Z,21.32
2018-04-16T13:10:27.365Z,21.73
2018-04-16T13:12:56.521Z,22.35
2018-04-16T13:15:24.930Z,22.84
2018-04-16T13:17:53.326Z,23.37
2018-04-16T13:20:21.730Z,23.50
2018-04-16T13:22:50.140Z,24.00
2018-04-16T13:25:18.534Z,23.66
2018-04-16T13:27:46.960Z,22.75
2018-04-16T13:30:16.090Z,21.68
2018-04-16T13:32:44.484Z,21.80
2018-04-16T13:35:12.974Z,21.97
2018-04-16T13:37:41.359Z,21.73
2018-04-16T13:40:09.782Z,21.24
2018-04-16T13:42:38.157Z,20.88
2018-04-16T13:45:06.591Z,20.55
2018-04-16T13:47:34.970Z,20.23
2018-04-16T13:50:03.474Z,20.18
2018-04-16T13:52:31.856Z,20.38
2018-04-16T13:55:00.239Z,20.42
2018-04-16T13:57:29.578Z,20.81
2018-04-16T13:59:57.982Z,21.74
2018-04-16T14:02:26.397Z,22.31
2018-04-16T14:04:54.799Z,22.44
2018-04-16T14:07:23.200Z,22.18
2018-04-16T14:09:51.582Z,22.48
2018-04-16T14:12:19.983Z,22.45
2018-04-16T14:14:49.150Z,22.43
2018-04-16T14:17:17.570Z,22.61
2018-04-16T14:19:45.974Z,22.46
2018-04-16T14:22:15.160Z,22.47
2018-04-16T14:24:43.541Z,21.92
2018-04-16T14:27:11.941Z,21.97
2018-04-16T14:29:41.097Z,22.22
2018-04-16T14:32:09.482Z,23.05
2018-04-16T14:34:37.879Z,23.88
2018-04-16T14:37:06.279Z,23.84
2018-04-16T14:39:34.688Z,24.05
2018-04-16T14:42:03.861Z,25.01
2018-04-16T14:44:32.297Z,26.14
2018-04-16T14:47:00.667Z,25.51
2018-04-16T14:49:29.075Z,25.40
2018-04-16T14:51:57.473Z,25.11
2018-04-16T14:54:25.878Z,24.47
2018-04-16T14:56:54.260Z,23.29
2018-04-16T14:59:22.819Z,23.96
2018-04-16T15:01:51.338Z,24.99
2018-04-16T15:04:19.725Z,25.18
2018-04-16T15:06:48.139Z,24.70
2018-04-16T15:09:16.541Z,24.72
2018-04-16T15:11:44.973Z,24.81
2018-04-16T15:14:13.607Z,25.57
2018-04-16T15:16:42.018Z,25.48
2018-04-16T15:19:10.448Z,24.53
2018-04-16T15:21:39.626Z,25.17
2018-04-16T15:24:08.026Z,24.78
2018-04-16T15:26:36.398Z,24.15
2018-04-16T15:29:04.791Z,23.01
2018-04-16T15:31:33.957Z,22.23
2018-04-16T15:34:02.409Z,22.78
2018-04-16T15:36:30.783Z,22.81
2018-04-16T15:38:59.162Z,22.81
2018-04-16T15:41:28.307Z,23.33
2018-04-16T15:43:56.777Z,23.33
2018-04-16T15:46:25.155Z,23.36
2018-04-16T15:48:53.531Z,23.84
2018-04-16T15:51:21.920Z,24.23
2018-04-16T15:53:50.354Z,24.56
2018-04-16T15:56:18.764Z,23.41
2018-04-16T15:58:47.158Z,23.02
2018-04-16T16:01:15.544Z,21.98
2018-04-16T16:03:43.931Z,21.36
2018-04-16T16:06:12.481Z,20.97
2018-04-16T16:08:41.643Z,21.95
2018-04-16T16:11:10.102Z,21.82
2018-04-16T16:13:38.498Z,21.99
2018-04-16T16:16:06.906Z,21.26
2018-04-16T16:18:35.298Z,21.31
2018-04-16T16:21:03.687Z,21.17
2018-04-16T16:23:32.078Z,20.83
2018-04-16T16:26:01.216Z,20.61
2018-04-16T16:28:29.653Z,20.55
2018-04-16T16:30:58.042Z,20.14
2018-04-16T16:33:26.442Z,20.15
2018-04-16T16:35:55.619Z,20.27
2018-04-16T16:38:24.001Z,20.04
2018-04-16T16:40:52.461Z,19.44
2018-04-16T16:43:20.821Z,19.36
2018-04-16T16:45:49.346Z,19.30
2018-04-16T16:48:17.730Z,19.00
2018-04-16T16:50:46.142Z,18.88
2018-04-16T16:53:15.303Z,18.68
2018-04-16T16:55:43.703Z,18.36
2018-04-16T16:58:12.063Z,18.38
2018-04-16T17:00:40.502Z,18.47
2018-04-16T17:03:09.722Z,18.45
2018-04-16T17:05:38.124Z,18.13
2018-04-16T17:08:06.533Z,18.29
2018-04-16T17:10:34.923Z,18.31
2018-04-16T17:13:03.313Z,18.55
2018-04-16T17:15:31.725Z,18.39
2018-04-16T17:18:00.133Z,18.19
2018-04-16T17:20:28.531Z,18.49
2018-04-16T17:22:56.946Z,18.43
2018-04-16T17:25:25.376Z,18.47
2018-04-16T17:27:53.770Z,18.67
2018-04-16T17:30:22.159Z,18.17
2018-04-16T17:32:50.557Z,18.19
2018-04-16T17:35:18.938Z,18.09
2018-04-16T17:37:47.413Z,18.13
2018-04-16T17:40:15.824Z,17.92
2018-04-16T17:42:44.217Z,17.93
2018-04-16T17:45:12.685Z,17.95
2018-04-16T17:47:41.073Z,17.99
2018-04-16T17:50:09.473Z,18.02
2018-04-16T17:52:37.876Z,17.94
2018-04-16T17:55:07.086Z,17.90
2018-04-16T17:57:35.422Z,17.82
2018-04-16T18:00:03.830Z,17.62
2018-04-16T18:02:32.971Z,17.29
2018-04-16T18:05:01.358Z,16.93
2018-04-16T18:07:29.755Z,16.67
2018-04-16T18:09:58.162Z,16.39
2018-04-16T18:12:26.598Z,16.29
2018-04-16T18:14:55.041Z,16.57
2018-04-16T18:17:23.421Z,16.80
2018-04-16T18:19:51.817Z,16.84
2018-04-16T18:22:20.971Z,16.42
2018-04-16T18:24:49.389Z,16.20
2018-04-16T18:27:17.787Z,15.89
2018-04-16T18:29:46.219Z,15.90
2018-04-16T18:32:14.639Z,15.80
2018-04-16T18:34:43.006Z,15.72
2018-04-16T18:37:11.398Z,15.52
2018-04-16T18:39:39.783Z,15.42
2018-04-16T18:42:08.183Z,15.27
2018-04-16T18:44:37.359Z,15.11
2018-04-16T18:47:05.791Z,14.99
2018-04-16T18:49:34.962Z,14.94
2018-04-16T18:52:03.367Z,14.97
2018-04-16T18:54:31.969Z,14.99
2018-04-16T18:57:00.623Z,14.83
2018-04-16T18:59:29.133Z,14.64
2018-04-16T19:01:57.545Z,14.60
2018-04-16T19:04:25.963Z,14.47
2018-04-16T19:06:54.434Z,14.31
2018-04-16T19:09:22.861Z,14.27
2018-04-16T19:11:52.092Z,14.22
2018-04-16T19:14:20.511Z,14.18
2018-04-16T19:16:48.959Z,14.09
2018-04-16T19:19:17.403Z,14.01
2018-04-16T19:21:51.152Z,13.95
2018-04-16T19:24:19.533Z,13.85
2018-04-16T19:26:53.266Z,13.73
2018-04-16T19:29:21.654Z,13.70
2018-04-16T19:31:50.126Z,13.64
2018-04-16T19:34:23.792Z,13.58
2018-04-16T19:36:52.287Z,13.45
2018-04-16T19:39:20.673Z,13.39
2018-04-16T19:41:54.463Z,13.24
2018-04-16T19:44:23.650Z,13.21
2018-04-16T19:46:52.839Z,13.20
2018-04-16T19:49:26.721Z,13.10
2018-04-16T19:51:55.133Z,13.12
2018-04-16T19:54:23.519Z,13.12
2018-04-16T19:56:57.461Z,13.10
2018-04-16T19:59:25.875Z,13.08
2018-04-16T20:01:59.783Z,13.12
2018-04-16T20:04:28.243Z,13.08
2018-04-16T20:06:56.715Z,13.08
2018-04-16T20:09:25.139Z,12.89
2018-04-16T20:11:53.544Z,12.80
2018-04-16T20:14:21.963Z,12.56
2018-04-16T20:16:51.154Z,12.52
2018-04-16T20:19:20.349Z,12.34
2018-04-16T20:21:48.779Z,12.18
2018-04-16T20:24:17.157Z,12.13
2018-04-16T20:26:45.604Z,12.02
2018-04-16T20:29:14.773Z,11.94
2018-04-16T20:31:43.964Z,11.82
2018-04-16T20:34:13.140Z,11.71
2018-04-16T20:36:41.577Z,11.66
2018-04-16T20:39:09.987Z,11.57
2018-04-16T20:41:39.185Z,11.43
2018-04-16T20:44:08.392Z,11.37
2018-04-16T20:46:36.797Z,11.24
2018-04-16T20:49:05.299Z,11.18
2018-04-16T20:51:33.767Z,11.07
2018-04-16T20:54:02.348Z,10.96
2018-04-16T20:56:30.759Z,10.87
2018-04-16T20:58:59.150Z,10.85
2018-04-16T21:01:27.596Z,10.82
2018-04-16T21:03:56.001Z,10.76
2018-04-16T21:06:24.481Z,10.66
2018-04-16T21:08:52.902Z,10.62
2018-04-16T21:11:21.271Z,10.55
2018-04-16T21:13:49.670Z,10.52
2018-04-16T21:16:18.055Z,10.51
2018-04-16T21:18:46.438Z,10.45
2018-04-16T21:21:14.846Z,10.43
2018-04-16T21:23:44.040Z,10.35
2018-04-16T21:26:12.537Z,10.26
2018-04-16T21:28:40.973Z,10.25
2018-04-16T21:31:09.429Z,10.21
2018-04-16T21:33:37.819Z,10.11
2018-04-16T21:36:06.225Z,10.11
2018-04-16T21:38:34.608Z,10.29
2018-04-16T21:41:03.039Z,10.30
2018-04-16T21:43:32.224Z,10.25
2018-04-16T21:46:01.391Z,10.14
2018-04-16T21:48:29.811Z,10.03
2018-04-16T21:50:58.958Z,9.99
2018-04-16T21:53:27.354Z,9.88
2018-04-16T21:55:56.511Z,9.95
2018-04-16T21:58:24.885Z,9.98
2018-04-16T22:00:54.062Z,9.86
2018-04-16T22:03:22.447Z,9.80
2018-04-16T22:05:50.890Z,9.66
2018-04-16T22:08:19.388Z,9.60
2018-04-16T22:10:47.778Z,9.60
2018-04-16T22:13:16.169Z,9.55
2018-04-16T22:15:44.573Z,9.55
2018-04-16T22:18:13.729Z,9.49
2018-04-16T22:20:42.113Z,9.39
2018-04-16T22:23:10.500Z,9.37
2018-04-16T22:25:38.895Z,9.28
2018-04-16T22:28:07.382Z,9.29
2018-04-16T22:30:35.758Z,9.22
2018-04-16T22:33:04.134Z,9.19
2018-04-16T22:35:32.500Z,9.27
2018-04-16T22:38:01.012Z,9.21
2018-04-16T22:40:29.414Z,9.13
2018-04-16T22:42:57.812Z,9.12
2018-04-16T22:45:28.022Z,9.10
2018-04-16T22:47:57.217Z,9.04
2018-04-16T22:50:25.601Z,9.09
2018-04-16T22:52:54.022Z,9.01
2018-04-16T22:55:23.162Z,9.00
2018-04-16T22:57:51.557Z,8.90
2018-04-16T23:00:19.981Z,8.83
2018-04-16T23:02:49.119Z,8.79
2018-04-16T23:05:17.511Z,8.76
2018-04-16T23:07:45.897Z,8.72
2018-04-16T23:10:14.278Z,8.68
2018-04-16T23:12:42.646Z,8.65
2018-04-16T23:15:11.052Z,8.58
2018-04-16T23:17:39.448Z,8.54
2018-04-16T23:20:08.862Z,8.53
2018-04-16T23:22:37.264Z,8.53
2018-04-16T23:25:06.410Z,8.44
2018-04-16T23:27:34.809Z,8.43
2018-04-16T23:30:03.226Z,8.43
2018-04-16T23:32:31.622Z,8.40
2018-04-16T23:35:00.782Z,8.33
2018-04-16T23:37:29.157Z,8.30
2018-04-16T23:39:57.525Z,8.27
2018-04-16T23:42:25.902Z,8.23
2018-04-16T23:44:54.282Z,8.18
2018-04-16T23:47:22.650Z,8.14
2018-04-16T23:49:51.151Z,8.26
2018-04-16T23:52:19.542Z,8.15
2018-04-16T23:54:47.933Z,8.17
2018-04-16T23:57:16.323Z,8.13
2018-04-16T23:59:44.726Z,8.09
